Wetterdaten: Woche 19.09.16 - 25.09.16 (KW38)
Datum Zeit Temp. A. Temp. A. max Feuchte A. Luftdruck Regen Wind Richtung Sonnenschein ET UV Solar Taupunkt Windben
19.09.2016 00:00 10,8 C 10,8 C 96 % 1011,4 hPa 0,4 mm 0,2 km/h (0 Bft) S-SW 0,00 h 0,000 mm 0,0 UV-I 0 W/m 10,2 C 0,6 km/h (0 Bft)
19.09.2016 01:00 10,9 C 10,9 C 95 % 1011,6 hPa 0,8 mm 1,2 km/h (1 Bft) S 0,00 h 0,000 mm 0,0 UV-I 0 W/m 10,2 C 2,4 km/h (1 Bft)
19.09.2016 02:00 11,1 C 11,1 C 96 % 1012,0 hPa 1,0 mm 3,3 km/h (1 Bft) W-SW 0,00 h 0,000 mm 0,0 UV-I 0 W/m 10,4 C 5,6 km/h (1 Bft)
19.09.2016 03:00 10,9 C 10,9 C 95 % 1012,4 hPa 1,6 mm 6,5 km/h (2 Bft) W 0,00 h 0,000 mm 0,0 UV-I 0 W/m 10,1 C 10,5 km/h (2 Bft)
19.09.2016 04:00 10,6 C 10,6 C 95 % 1012,8 hPa 0,6 mm 5,9 km/h (2 Bft) W 0,00 h 0,000 mm 0,0 UV-I 0 W/m 9,9 C 9,8 km/h (2 Bft)
19.09.2016 05:00 10,6 C 10,6 C 95 % 1013,1 hPa 1,6 mm 5,9 km/h (2 Bft) W-SW 0,00 h 0,000 mm 0,0 UV-I 0 W/m 9,8 C 10,2 km/h (2 Bft)
19.09.2016 06:00 10,6 C 10,6 C 95 % 1013,1 hPa 1,4 mm 6,7 km/h (2 Bft) W-SW 0,00 h 0,000 mm 0,0 UV-I 0 W/m 9,9 C 11,3 km/h (2 Bft)
19.09.2016 07:00 10,8 C 10,8 C 95 % 1013,5 hPa 2,2 mm 11,5 km/h (2 Bft) W-SW 0,00 h 0,000 mm 0,0 UV-I 8 W/m 10,0 C 18,4 km/h (3 Bft)
19.09.2016 08:00 10,7 C 10,7 C 94 % 1013,9 hPa 1,2 mm 10,5 km/h (2 Bft) W-SW 0,00 h 0,000 mm 0,0 UV-I 22 W/m 9,8 C 17,5 km/h (3 Bft)
19.09.2016 09:00 10,7 C 10,7 C 94 % 1014,5 hPa 0,8 mm 9,5 km/h (2 Bft) W 0,00 h 0,025 mm 0,6 UV-I 51 W/m 9,7 C 15,2 km/h (3 Bft)
19.09.2016 10:00 10,9 C 10,9 C 94 % 1015,1 hPa 0,4 mm 10,8 km/h (2 Bft) W 0,00 h 0,026 mm 0,7 UV-I 96 W/m 9,9 C 17,1 km/h (3 Bft)
19.09.2016 11:00 11,0 C 11,0 C 93 % 1015,7 hPa 0,8 mm 8,0 km/h (2 Bft) W-SW 0,00 h 0,051 mm 1,1 UV-I 125 W/m 9,9 C 12,7 km/h (3 Bft)
19.09.2016 12:00 11,1 C 11,1 C 93 % 1016,0 hPa 1,0 mm 5,7 km/h (1 Bft) SW 0,00 h 0,076 mm 1,1 UV-I 126 W/m 10,1 C 9,6 km/h (2 Bft)
19.09.2016 13:00 11,2 C 11,2 C 93 % 1016,2 hPa 0,4 mm 4,6 km/h (1 Bft) W 0,00 h 0,076 mm 0,9 UV-I 97 W/m 10,1 C 8,0 km/h (2 Bft)
19.09.2016 14:00 10,9 C 10,9 C 93 % 1016,5 hPa 1,4 mm 4,8 km/h (1 Bft) W-NW 0,00 h 0,051 mm 0,9 UV-I 81 W/m 9,8 C 8,2 km/h (2 Bft)
19.09.2016 15:00 10,4 C 10,4 C 93 % 1016,6 hPa 0,2 mm 3,7 km/h (1 Bft) S-SW 0,00 h 0,051 mm 0,8 UV-I 95 W/m 9,3 C 6,6 km/h (2 Bft)
19.09.2016 16:00 10,3 C 10,3 C 94 % 1016,7 hPa 0,6 mm 2,5 km/h (1 Bft) W-SW 0,00 h 0,050 mm 0,6 UV-I 53 W/m 9,4 C 4,3 km/h (1 Bft)
19.09.2016 17:00 10,3 C 10,3 C 95 % 1016,8 hPa 0,6 mm 2,1 km/h (1 Bft) W-SW 0,00 h 0,026 mm 0,0 UV-I 14 W/m 9,5 C 3,6 km/h (1 Bft)
19.09.2016 18:00 10,1 C 10,1 C 94 % 1016,9 hPa 0,2 mm 2,7 km/h (1 Bft) S-SW 0,00 h 0,000 mm 0,0 UV-I 9 W/m 9,1 C 4,8 km/h (1 Bft)
19.09.2016 19:00 9,9 C 10,0 C 93 % 1017,1 hPa 0,0 mm 3,4 km/h (1 Bft) S-SW 0,00 h 0,000 mm 0,0 UV-I 0 W/m 8,9 C 5,7 km/h (1 Bft)
19.09.2016 20:00 9,6 C 9,6 C 94 % 1017,4 hPa 0,0 mm 2,8 km/h (1 Bft) S 0,00 h 0,000 mm 0,0 UV-I 0 W/m 8,8 C 4,6 km/h (1 Bft)
19.09.2016 21:00 9,4 C 9,4 C 95 % 1017,7 hPa 0,0 mm 0,7 km/h (0 Bft) S-SW 0,00 h 0,000 mm 0,0 UV-I 0 W/m 8,7 C 1,8 km/h (1 Bft)
19.09.2016 22:00 9,4 C 9,5 C 95 % 1017,5 hPa 0,0 mm 0,9 km/h (0 Bft) S-SW 0,00 h 0,000 mm 0,0 UV-I 0 W/m 8,7 C 1,8 km/h (1 Bft)
19.09.2016 23:00 9,4 C 9,4 C 95 % 1017,3 hPa 0,0 mm 0,8 km/h (0 Bft) S-SW 0,00 h 0,000 mm 0,0 UV-I 0 W/m 8,6 C 1,6 km/h (1 Bft)
20.09.2016 00:00 9,3 C 9,4 C 95 % 1017,4 hPa 0,2 mm 0,7 km/h (0 Bft) S 0,00 h 0,000 mm 0,0 UV-I 0 W/m 8,5 C 1,5 km/h (1 Bft)
20.09.2016 01:00 9,2 C 9,2 C 95 % 1017,3 hPa 0,0 mm 1,9 km/h (1 Bft) S 0,00 h 0,000 mm 0,0 UV-I 0 W/m 8,5 C 3,2 km/h (1 Bft)
20.09.2016 02:00 9,2 C 9,2 C 95 % 1017,1 hPa 0,0 mm 2,8 km/h (1 Bft) S 0,00 h 0,000 mm 0,0 UV-I 0 W/m 8,4 C 4,7 km/h (1 Bft)
20.09.2016 03:00 9,1 C 9,1 C 95 % 1016,7 hPa 0,0 mm 1,5 km/h (1 Bft) S 0,00 h 0,000 mm 0,0 UV-I 0 W/m 8,3 C 2,9 km/h (1 Bft)
20.09.2016 04:00 9,0 C 9,0 C 95 % 1016,6 hPa 0,0 mm 1,2 km/h (1 Bft) S-SO 0,00 h 0,000 mm 0,0 UV-I 0 W/m 8,3 C 2,2 km/h (1 Bft)
20.09.2016 05:00 9,1 C 9,1 C 95 % 1016,5 hPa 0,0 mm 1,0 km/h (0 Bft) S-SW 0,00 h 0,000 mm 0,0 UV-I 0 W/m 8,4 C 1,8 km/h (1 Bft)
20.09.2016 06:00 9,1 C 9,1 C 96 % 1016,5 hPa 0,0 mm 1,5 km/h (1 Bft) S-SO 0,00 h 0,000 mm 0,0 UV-I 0 W/m 8,4 C 2,7 km/h (1 Bft)
20.09.2016 07:00 9,2 C 9,2 C 96 % 1016,5 hPa 0,0 mm 0,7 km/h (0 Bft) S-SO 0,00 h 0,000 mm 0,0 UV-I 21 W/m 8,6 C 1,5 km/h (1 Bft)
20.09.2016 08:00 9,9 C 9,9 C 94 % 1016,6 hPa 0,0 mm 0,4 km/h (0 Bft) W-SW 0,00 h 0,000 mm 0,5 UV-I 56 W/m 9,1 C 0,9 km/h (0 Bft)
20.09.2016 09:00 10,4 C 10,5 C 92 % 1016,7 hPa 0,0 mm 0,6 km/h (0 Bft) W-SW 0,00 h 0,025 mm 0,7 UV-I 98 W/m 9,2 C 1,3 km/h (1 Bft)
20.09.2016 10:00 10,9 C 10,9 C 92 % 1017,0 hPa 0,0 mm 2,9 km/h (1 Bft) N 0,00 h 0,051 mm 1,3 UV-I 163 W/m 9,6 C 4,7 km/h (1 Bft)
20.09.2016 11:00 11,0 C 11,0 C 92 % 1016,9 hPa 0,0 mm 4,4 km/h (1 Bft) NO 0,00 h 0,076 mm 1,8 UV-I 202 W/m 9,7 C 6,7 km/h (2 Bft)
20.09.2016 12:00 10,9 C 11,0 C 92 % 1016,7 hPa 0,0 mm 4,7 km/h (1 Bft) O-NO 0,00 h 0,102 mm 1,6 UV-I 190 W/m 9,6 C 7,3 km/h (2 Bft)
20.09.2016 13:00 10,5 C 10,5 C 92 % 1016,7 hPa 0,0 mm 4,1 km/h (1 Bft) N-NO 0,00 h 0,102 mm 0,6 UV-I 74 W/m 9,2 C 6,6 km/h (2 Bft)
20.09.2016 14:00 11,0 C 11,0 C 89 % 1016,4 hPa 0,0 mm 3,9 km/h (1 Bft) N-NO 0,00 h 0,050 mm 1,3 UV-I 160 W/m 9,3 C 6,1 km/h (2 Bft)
20.09.2016 15:00 11,7 C 11,7 C 86 % 1016,2 hPa 0,0 mm 3,3 km/h (1 Bft) O-NO 0,00 h 0,077 mm 1,4 UV-I 178 W/m 9,4 C 5,3 km/h (1 Bft)
20.09.2016 16:00 11,5 C 11,5 C 89 % 1016,1 hPa 0,0 mm 2,8 km/h (1 Bft) O-NO 0,00 h 0,101 mm 0,7 UV-I 55 W/m 9,7 C 4,5 km/h (1 Bft)
20.09.2016 17:00 10,9 C 10,9 C 91 % 1016,2 hPa 0,0 mm 2,4 km/h (1 Bft) NO 0,00 h 0,026 mm 0,0 UV-I 25 W/m 9,5 C 4,0 km/h (1 Bft)
20.09.2016 18:00 10,6 C 10,6 C 92 % 1016,3 hPa 0,0 mm 0,1 km/h (0 Bft) N 0,00 h 0,025 mm 0,0 UV-I 13 W/m 9,4 C 0,2 km/h (0 Bft)
20.09.2016 19:00 10,3 C 10,3 C 93 % 1016,6 hPa 0,0 mm 0,0 km/h (0 Bft) N 0,00 h 0,000 mm 0,0 UV-I 0 W/m 9,3 C 0,0 km/h (0 Bft)
20.09.2016 20:00 9,9 C 9,9 C 94 % 1017,0 hPa 0,0 mm 0,4 km/h (0 Bft) NO 0,00 h 0,000 mm 0,0 UV-I 0 W/m 9,0 C 0,8 km/h (0 Bft)
20.09.2016 21:00 10,1 C 10,1 C 94 % 1017,2 hPa 0,0 mm 1,3 km/h (1 Bft) NO 0,00 h 0,000 mm 0,0 UV-I 0 W/m 9,2 C 2,9 km/h (1 Bft)
20.09.2016 22:00 9,9 C 9,9 C 94 % 1017,2 hPa 0,0 mm 0,6 km/h (0 Bft) NO 0,00 h 0,000 mm 0,0 UV-I 0 W/m 9,0 C 1,3 km/h (1 Bft)
20.09.2016 23:00 9,7 C 9,7 C 95 % 1017,2 hPa 0,0 mm 1,1 km/h (0 Bft) O-NO 0,00 h 0,000 mm 0,0 UV-I 0 W/m 8,9 C 1,7 km/h (1 Bft)
21.09.2016 00:00 9,2 C 9,2 C 96 % 1017,1 hPa 0,0 mm 0,8 km/h (0 Bft) O 0,00 h 0,000 mm 0,0 UV-I 0 W/m 8,5 C 1,9 km/h (1 Bft)
21.09.2016 01:00 9,2 C 9,2 C 95 % 1016,9 hPa 0,0 mm 0,5 km/h (0 Bft) O-NO 0,00 h 0,000 mm 0,0 UV-I 0 W/m 8,5 C 1,1 km/h (0 Bft)
21.09.2016 02:00 9,1 C 9,1 C 95 % 1016,6 hPa 0,0 mm 1,6 km/h (1 Bft) O-NO 0,00 h 0,000 mm 0,0 UV-I 0 W/m 8,3 C 3,0 km/h (1 Bft)
21.09.2016 03:00 8,9 C 8,9 C 95 % 1016,3 hPa 0,0 mm 2,2 km/h (1 Bft) O-NO 0,00 h 0,000 mm 0,0 UV-I 0 W/m 8,1 C 4,1 km/h (1 Bft)
21.09.2016 04:00 8,8 C 8,8 C 96 % 1016,4 hPa 0,0 mm 1,4 km/h (1 Bft) O-NO 0,00 h 0,000 mm 0,0 UV-I 0 W/m 8,1 C 2,9 km/h (1 Bft)
21.09.2016 05:00 8,7 C 8,7 C 96 % 1016,4 hPa 0,0 mm 2,2 km/h (1 Bft) O-NO 0,00 h 0,000 mm 0,0 UV-I 0 W/m 8,0 C 3,7 km/h (1 Bft)
21.09.2016 06:00 8,3 C 8,3 C 95 % 1016,4 hPa 0,0 mm 1,6 km/h (1 Bft) O-NO 0,00 h 0,000 mm 0,0 UV-I 0 W/m 7,5 C 3,2 km/h (1 Bft)
21.09.2016 07:00 8,2 C 8,2 C 95 % 1016,5 hPa 0,0 mm 1,2 km/h (1 Bft) O-NO 0,00 h 0,000 mm 0,0 UV-I 13 W/m 7,4 C 2,3 km/h (1 Bft)
21.09.2016 08:00 8,2 C 8,3 C 94 % 1016,6 hPa 0,0 mm 3,3 km/h (1 Bft) NO 0,00 h 0,000 mm 0,0 UV-I 49 W/m 7,3 C 5,2 km/h (1 Bft)
21.09.2016 09:00 8,4 C 8,4 C 94 % 1016,9 hPa 0,0 mm 2,5 km/h (1 Bft) O-NO 0,00 h 0,025 mm 0,6 UV-I 85 W/m 7,5 C 4,1 km/h (1 Bft)
21.09.2016 10:00 8,5 C 8,5 C 94 % 1017,4 hPa 0,0 mm 4,2 km/h (1 Bft) O-NO 0,00 h 0,051 mm 0,8 UV-I 107 W/m 7,7 C 7,0 km/h (2 Bft)
21.09.2016 11:00 8,7 C 8,7 C 93 % 1017,7 hPa 0,0 mm 3,2 km/h (1 Bft) NO 0,00 h 0,051 mm 1,2 UV-I 143 W/m 7,7 C 4,9 km/h (1 Bft)
21.09.2016 12:00 10,0 C 10,0 C 89 % 1017,7 hPa 0,0 mm 3,9 km/h (1 Bft) O-NO 0,00 h 0,076 mm 2,1 UV-I 262 W/m 8,3 C 6,3 km/h (2 Bft)
21.09.2016 13:00 10,7 C 10,7 C 88 % 1017,7 hPa 0,0 mm 4,6 km/h (1 Bft) O-NO 0,00 h 0,127 mm 1,3 UV-I 166 W/m 8,8 C 7,1 km/h (2 Bft)
21.09.2016 14:00 11,2 C 11,3 C 86 % 1017,8 hPa 0,0 mm 4,3 km/h (1 Bft) O-NO 0,00 h 0,076 mm 2,0 UV-I 257 W/m 9,1 C 6,9 km/h (2 Bft)
21.09.2016 15:00 11,4 C 11,4 C 85 % 1017,7 hPa 0,0 mm 5,3 km/h (1 Bft) O-NO 0,03 h 0,127 mm 1,1 UV-I 143 W/m 9,0 C 8,5 km/h (2 Bft)
21.09.2016 16:00 11,2 C 11,2 C 87 % 1017,6 hPa 0,0 mm 5,3 km/h (1 Bft) O-NO 0,00 h 0,077 mm 0,9 UV-I 112 W/m 9,1 C 8,6 km/h (2 Bft)
21.09.2016 17:00 10,7 C 10,7 C 89 % 1017,8 hPa 0,0 mm 4,7 km/h (1 Bft) O-NO 0,00 h 0,050 mm 0,5 UV-I 65 W/m 9,0 C 7,6 km/h (2 Bft)
21.09.2016 18:00 10,6 C 10,6 C 90 % 1018,1 hPa 0,0 mm 2,3 km/h (1 Bft) O-NO 0,00 h 0,026 mm 0,0 UV-I 22 W/m 9,0 C 3,9 km/h (1 Bft)
21.09.2016 19:00 10,2 C 10,2 C 92 % 1018,4 hPa 0,0 mm 0,0 km/h (0 Bft) N 0,00 h 0,025 mm 0,0 UV-I 5 W/m 8,9 C 0,0 km/h (0 Bft)
21.09.2016 20:00 9,7 C 9,7 C 93 % 1018,9 hPa 0,0 mm 0,0 km/h (0 Bft) N 0,00 h 0,000 mm 0,0 UV-I 0 W/m 8,6 C 0,0 km/h (0 Bft)
21.09.2016 21:00 9,3 C 9,3 C 94 % 1019,1 hPa 0,0 mm 0,0 km/h (0 Bft) N 0,00 h 0,000 mm 0,0 UV-I 0 W/m 8,3 C 0,0 km/h (0 Bft)
21.09.2016 22:00 8,1 C 8,2 C 93 % 1019,3 hPa 0,0 mm 0,2 km/h (0 Bft) O 0,00 h 0,000 mm 0,0 UV-I 0 W/m 7,1 C 0,3 km/h (0 Bft)
21.09.2016 23:00 6,3 C 6,3 C 95 % 1019,8 hPa 0,0 mm 0,8 km/h (0 Bft) O-SO 0,00 h 0,000 mm 0,0 UV-I 0 W/m 5,5 C 1,4 km/h (1 Bft)
22.09.2016 00:00 5,8 C 5,9 C 96 % 1020,0 hPa 0,0 mm 0,0 km/h (0 Bft) O-SO 0,00 h 0,000 mm 0,0 UV-I 0 W/m 5,2 C 0,2 km/h (0 Bft)
22.09.2016 01:00 5,4 C 5,5 C 96 % 1020,1 hPa 0,0 mm 0,2 km/h (0 Bft) O-SO 0,00 h 0,000 mm 0,0 UV-I 0 W/m 4,9 C 0,4 km/h (0 Bft)
22.09.2016 02:00 4,9 C 5,0 C 97 % 1020,2 hPa 0,0 mm 0,0 km/h (0 Bft) N 0,00 h 0,000 mm 0,0 UV-I 0 W/m 4,5 C 0,0 km/h (0 Bft)
22.09.2016 03:00 5,2 C 5,2 C 97 % 1020,2 hPa 0,0 mm 0,2 km/h (0 Bft) O-SO 0,00 h 0,000 mm 0,0 UV-I 0 W/m 4,7 C 0,6 km/h (0 Bft)
22.09.2016 04:00 5,9 C 5,9 C 97 % 1020,4 hPa 0,0 mm 0,4 km/h (0 Bft) NO 0,00 h 0,000 mm 0,0 UV-I 0 W/m 5,4 C 0,8 km/h (0 Bft)
22.09.2016 05:00 6,5 C 6,5 C 97 % 1020,5 hPa 0,0 mm 0,6 km/h (0 Bft) N-NO 0,00 h 0,000 mm 0,0 UV-I 0 W/m 6,1 C 1,3 km/h (1 Bft)
22.09.2016 06:00 6,4 C 6,4 C 96 % 1020,7 hPa 0,0 mm 0,6 km/h (0 Bft) N-NO 0,00 h 0,000 mm 0,0 UV-I 0 W/m 5,8 C 1,4 km/h (1 Bft)
22.09.2016 07:00 6,5 C 6,6 C 97 % 1021,0 hPa 0,0 mm 0,7 km/h (0 Bft) NO 0,00 h 0,000 mm 0,0 UV-I 20 W/m 6,1 C 1,3 km/h (1 Bft)
22.09.2016 08:00 6,6 C 6,6 C 97 % 1021,2 hPa 0,0 mm 0,1 km/h (0 Bft) NO 0,00 h 0,000 mm 0,7 UV-I 39 W/m 6,1 C 0,3 km/h (0 Bft)
22.09.2016 09:00 8,9 C 8,9 C 94 % 1021,4 hPa 0,0 mm 0,4 km/h (0 Bft) NO 0,75 h 0,025 mm 1,5 UV-I 293 W/m 8,0 C 0,8 km/h (0 Bft)
22.09.2016 10:00 12,0 C 12,0 C 87 % 1021,5 hPa 0,0 mm 2,7 km/h (1 Bft) N 1,00 h 0,127 mm 2,8 UV-I 490 W/m 9,9 C 4,4 km/h (1 Bft)
22.09.2016 11:00 13,8 C 13,8 C 77 % 1021,5 hPa 0,0 mm 3,7 km/h (1 Bft) O 1,00 h 0,229 mm 3,8 UV-I 607 W/m 9,8 C 5,8 km/h (2 Bft)
22.09.2016 12:00 14,9 C 14,9 C 70 % 1021,4 hPa 0,0 mm 4,5 km/h (1 Bft) N-NO 0,97 h 0,305 mm 4,2 UV-I 627 W/m 9,5 C 6,9 km/h (2 Bft)
22.09.2016 13:00 15,3 C 15,4 C 71 % 1021,3 hPa 0,0 mm 5,2 km/h (1 Bft) O-NO 1,00 h 0,330 mm 4,4 UV-I 661 W/m 10,0 C 9,0 km/h (2 Bft)
22.09.2016 14:00 15,8 C 15,9 C 68 % 1021,0 hPa 0,0 mm 4,6 km/h (1 Bft) NO 0,90 h 0,356 mm 3,7 UV-I 581 W/m 9,9 C 7,1 km/h (2 Bft)
22.09.2016 15:00 15,6 C 15,6 C 70 % 1020,8 hPa 0,0 mm 3,3 km/h (1 Bft) NO 0,67 h 0,304 mm 2,6 UV-I 406 W/m 10,1 C 5,5 km/h (1 Bft)
22.09.2016 16:00 15,9 C 15,9 C 67 % 1020,6 hPa 0,0 mm 2,7 km/h (1 Bft) N 0,53 h 0,229 mm 1,7 UV-I 285 W/m 9,9 C 4,3 km/h (1 Bft)
22.09.2016 17:00 14,8 C 14,8 C 72 % 1020,7 hPa 0,0 mm 1,1 km/h (1 Bft) O 0,00 h 0,152 mm 0,9 UV-I 52 W/m 9,8 C 2,1 km/h (1 Bft)
22.09.2016 18:00 13,6 C 13,7 C 78 % 1020,8 hPa 0,0 mm 1,7 km/h (1 Bft) SO 0,00 h 0,026 mm 0,0 UV-I 30 W/m 9,8 C 2,7 km/h (1 Bft)
22.09.2016 19:00 10,9 C 10,9 C 86 % 1020,9 hPa 0,0 mm 0,6 km/h (0 Bft) O-SO 0,00 h 0,025 mm 0,0 UV-I 6 W/m 8,6 C 1,2 km/h (1 Bft)
22.09.2016 20:00 9,1 C 9,2 C 91 % 1021,3 hPa 0,0 mm 1,1 km/h (1 Bft) S-SO 0,00 h 0,000 mm 0,0 UV-I 0 W/m 7,8 C 2,3 km/h (1 Bft)
22.09.2016 21:00 8,6 C 8,6 C 93 % 1021,7 hPa 0,0 mm 0,4 km/h (0 Bft) S-SO 0,00 h 0,000 mm 0,0 UV-I 0 W/m 7,6 C 0,9 km/h (0 Bft)
22.09.2016 22:00 8,0 C 8,0 C 95 % 1021,9 hPa 0,0 mm 0,0 km/h (0 Bft) S-SO 0,00 h 0,000 mm 0,0 UV-I 0 W/m 7,2 C 0,1 km/h (0 Bft)
22.09.2016 23:00 8,0 C 8,1 C 95 % 1022,1 hPa 0,0 mm 0,0 km/h (0 Bft) N 0,00 h 0,000 mm 0,0 UV-I 0 W/m 7,3 C 0,0 km/h (0 Bft)
23.09.2016 00:00 7,3 C 7,4 C 95 % 1022,2 hPa 0,0 mm 0,0 km/h (0 Bft) N 0,00 h 0,000 mm 0,0 UV-I 0 W/m 6,6 C 0,0 km/h (0 Bft)
23.09.2016 01:00 7,1 C 7,1 C 96 % 1022,4 hPa 0,0 mm 0,0 km/h (0 Bft) N 0,00 h 0,000 mm 0,0 UV-I 0 W/m 6,5 C 0,0 km/h (0 Bft)
23.09.2016 02:00 6,8 C 6,9 C 96 % 1022,5 hPa 0,0 mm 0,0 km/h (0 Bft) N 0,00 h 0,000 mm 0,0 UV-I 0 W/m 6,2 C 0,0 km/h (0 Bft)
23.09.2016 03:00 6,6 C 6,6 C 96 % 1022,7 hPa 0,0 mm 0,0 km/h (0 Bft) N 0,00 h 0,000 mm 0,0 UV-I 0 W/m 6,0 C 0,0 km/h (0 Bft)
23.09.2016 04:00 6,3 C 6,4 C 96 % 1022,9 hPa 0,0 mm 0,0 km/h (0 Bft) N 0,00 h 0,000 mm 0,0 UV-I 0 W/m 5,8 C 0,0 km/h (0 Bft)
23.09.2016 05:00 6,5 C 6,5 C 97 % 1023,0 hPa 0,0 mm 0,0 km/h (0 Bft) N 0,00 h 0,000 mm 0,0 UV-I 0 W/m 5,9 C 0,0 km/h (0 Bft)
23.09.2016 06:00 6,3 C 6,3 C 97 % 1023,0 hPa 0,0 mm 0,0 km/h (0 Bft) S-SO 0,00 h 0,000 mm 0,0 UV-I 0 W/m 5,8 C 0,1 km/h (0 Bft)
23.09.2016 07:00 7,4 C 7,4 C 97 % 1023,3 hPa 0,0 mm 0,4 km/h (0 Bft) W 0,05 h 0,000 mm 0,0 UV-I 27 W/m 7,0 C 0,9 km/h (0 Bft)
23.09.2016 08:00 9,2 C 9,2 C 94 % 1023,8 hPa 0,0 mm 0,0 km/h (0 Bft) N 0,00 h 0,000 mm 0,6 UV-I 76 W/m 8,3 C 0,0 km/h (0 Bft)
23.09.2016 09:00 11,0 C 11,0 C 92 % 1024,2 hPa 0,0 mm 0,0 km/h (0 Bft) N 0,20 h 0,025 mm 1,0 UV-I 150 W/m 9,7 C 0,0 km/h (0 Bft)
23.09.2016 10:00 13,2 C 13,2 C 86 % 1024,6 hPa 0,0 mm 0,3 km/h (0 Bft) NW 0,47 h 0,077 mm 1,8 UV-I 262 W/m 10,9 C 0,6 km/h (0 Bft)
23.09.2016 11:00 15,1 C 15,1 C 74 % 1024,9 hPa 0,0 mm 6,1 km/h (2 Bft) W 0,65 h 0,127 mm 2,8 UV-I 376 W/m 10,5 C 9,8 km/h (2 Bft)
23.09.2016 12:00 15,7 C 15,8 C 72 % 1025,0 hPa 0,0 mm 6,8 km/h (2 Bft) W 0,57 h 0,203 mm 3,0 UV-I 383 W/m 10,8 C 10,9 km/h (2 Bft)
23.09.2016 13:00 16,3 C 16,4 C 72 % 1024,9 hPa 0,0 mm 6,0 km/h (2 Bft) W-NW 0,45 h 0,228 mm 3,2 UV-I 384 W/m 11,2 C 9,8 km/h (2 Bft)
23.09.2016 14:00 16,8 C 16,8 C 72 % 1024,6 hPa 0,0 mm 4,9 km/h (1 Bft) W 0,18 h 0,229 mm 2,5 UV-I 288 W/m 11,7 C 8,0 km/h (2 Bft)
23.09.2016 15:00 16,9 C 16,9 C 72 % 1024,4 hPa 0,0 mm 6,4 km/h (2 Bft) W 0,23 h 0,178 mm 2,0 UV-I 261 W/m 11,7 C 10,4 km/h (2 Bft)
23.09.2016 16:00 16,6 C 16,6 C 71 % 1024,6 hPa 0,0 mm 5,6 km/h (1 Bft) W 0,00 h 0,178 mm 1,1 UV-I 145 W/m 11,3 C 9,1 km/h (2 Bft)
23.09.2016 17:00 15,9 C 16,0 C 73 % 1024,9 hPa 0,0 mm 3,0 km/h (1 Bft) SW 0,00 h 0,101 mm 0,7 UV-I 88 W/m 11,1 C 5,3 km/h (1 Bft)
23.09.2016 18:00 14,0 C 14,0 C 84 % 1025,2 hPa 0,0 mm 1,0 km/h (0 Bft) SW 0,00 h 0,051 mm 0,0 UV-I 30 W/m 11,3 C 2,1 km/h (1 Bft)
23.09.2016 19:00 12,3 C 12,3 C 90 % 1025,5 hPa 0,0 mm 0,6 km/h (0 Bft) SW 0,00 h 0,025 mm 0,0 UV-I 6 W/m 10,6 C 1,0 km/h (0 Bft)
23.09.2016 20:00 11,4 C 11,4 C 92 % 1025,9 hPa 0,0 mm 0,5 km/h (0 Bft) S-SW 0,00 h 0,000 mm 0,0 UV-I 0 W/m 10,1 C 0,7 km/h (0 Bft)
23.09.2016 21:00 11,3 C 11,4 C 92 % 1026,0 hPa 0,0 mm 0,7 km/h (0 Bft) S 0,00 h 0,000 mm 0,0 UV-I 0 W/m 10,1 C 1,3 km/h (1 Bft)
23.09.2016 22:00 10,7 C 10,7 C 93 % 1026,3 hPa 0,0 mm 0,1 km/h (0 Bft) S 0,00 h 0,000 mm 0,0 UV-I 0 W/m 9,5 C 0,3 km/h (0 Bft)
23.09.2016 23:00 9,8 C 9,8 C 93 % 1026,3 hPa 0,0 mm 0,3 km/h (0 Bft) S 0,00 h 0,000 mm 0,0 UV-I 0 W/m 8,7 C 1,0 km/h (0 Bft)
24.09.2016 00:00 9,1 C 9,1 C 95 % 1026,3 hPa 0,0 mm 0,4 km/h (0 Bft) S 0,00 h 0,000 mm 0,0 UV-I 0 W/m 8,3 C 0,9 km/h (0 Bft)
24.09.2016 01:00 8,0 C 8,0 C 95 % 1026,2 hPa 0,0 mm 0,1 km/h (0 Bft) S 0,00 h 0,000 mm 0,0 UV-I 0 W/m 7,2 C 0,3 km/h (0 Bft)
24.09.2016 02:00 7,5 C 7,5 C 96 % 1026,0 hPa 0,0 mm 0,1 km/h (0 Bft) S 0,00 h 0,000 mm 0,0 UV-I 0 W/m 6,9 C 0,2 km/h (0 Bft)
24.09.2016 03:00 6,9 C 6,9 C 96 % 1025,7 hPa 0,0 mm 0,0 km/h (0 Bft) N 0,00 h 0,000 mm 0,0 UV-I 0 W/m 6,3 C 0,0 km/h (0 Bft)
24.09.2016 04:00 6,5 C 6,5 C 96 % 1025,4 hPa 0,0 mm 0,0 km/h (0 Bft) N 0,00 h 0,000 mm 0,0 UV-I 0 W/m 5,9 C 0,0 km/h (0 Bft)
24.09.2016 05:00 6,0 C 6,1 C 97 % 1025,2 hPa 0,0 mm 0,0 km/h (0 Bft) N 0,00 h 0,000 mm 0,0 UV-I 0 W/m 5,5 C 0,0 km/h (0 Bft)
24.09.2016 06:00 5,7 C 5,7 C 97 % 1025,2 hPa 0,0 mm 0,6 km/h (0 Bft) S 0,00 h 0,000 mm 0,0 UV-I 0 W/m 5,2 C 1,1 km/h (0 Bft)
24.09.2016 07:00 5,6 C 5,6 C 97 % 1025,5 hPa 0,0 mm 0,1 km/h (0 Bft) N 0,00 h 0,000 mm 0,0 UV-I 16 W/m 5,1 C 0,5 km/h (0 Bft)
24.09.2016 08:00 7,1 C 7,1 C 97 % 1025,7 hPa 0,0 mm 0,2 km/h (0 Bft) S 0,00 h 0,000 mm 0,0 UV-I 36 W/m 6,7 C 0,5 km/h (0 Bft)
24.09.2016 09:00 10,0 C 10,0 C 94 % 1025,5 hPa 0,0 mm 0,1 km/h (0 Bft) S 0,48 h 0,025 mm 1,3 UV-I 223 W/m 9,0 C 0,5 km/h (0 Bft)
24.09.2016 10:00 12,9 C 12,9 C 87 % 1025,5 hPa 0,0 mm 2,5 km/h (1 Bft) NO 0,73 h 0,102 mm 2,3 UV-I 388 W/m 10,7 C 4,4 km/h (1 Bft)
24.09.2016 11:00 14,8 C 14,8 C 80 % 1025,5 hPa 0,0 mm 5,1 km/h (1 Bft) NO 0,97 h 0,203 mm 3,5 UV-I 574 W/m 11,3 C 8,4 km/h (2 Bft)
24.09.2016 12:00 15,9 C 16,0 C 76 % 1025,2 hPa 0,0 mm 4,9 km/h (1 Bft) NO 1,00 h 0,305 mm 4,1 UV-I 643 W/m 11,8 C 8,0 km/h (2 Bft)
24.09.2016 13:00 16,8 C 16,8 C 73 % 1024,7 hPa 0,0 mm 4,9 km/h (1 Bft) NO 1,00 h 0,356 mm 4,1 UV-I 642 W/m 11,9 C 8,2 km/h (2 Bft)
24.09.2016 14:00 17,8 C 17,9 C 72 % 1024,0 hPa 0,0 mm 5,0 km/h (1 Bft) NO 1,00 h 0,355 mm 3,7 UV-I 592 W/m 12,8 C 8,6 km/h (2 Bft)
24.09.2016 15:00 18,3 C 18,3 C 70 % 1023,5 hPa 0,0 mm 5,6 km/h (1 Bft) NO 0,97 h 0,330 mm 2,6 UV-I 478 W/m 12,8 C 9,4 km/h (2 Bft)
24.09.2016 16:00 17,9 C 18,0 C 69 % 1023,2 hPa 0,0 mm 4,7 km/h (1 Bft) NO 0,55 h 0,280 mm 1,7 UV-I 227 W/m 12,1 C 8,0 km/h (2 Bft)
24.09.2016 17:00 16,9 C 16,9 C 72 % 1022,9 hPa 0,0 mm 3,1 km/h (1 Bft) O-NO 0,00 h 0,152 mm 0,9 UV-I 38 W/m 11,8 C 5,2 km/h (1 Bft)
24.09.2016 18:00 15,5 C 15,6 C 78 % 1022,9 hPa 0,0 mm 1,3 km/h (1 Bft) O 0,02 h 0,026 mm 0,0 UV-I 22 W/m 11,7 C 2,4 km/h (1 Bft)
24.09.2016 19:00 13,2 C 13,3 C 85 % 1022,8 hPa 0,0 mm 0,9 km/h (0 Bft) S-SO 0,00 h 0,025 mm 0,0 UV-I 6 W/m 10,8 C 1,8 km/h (1 Bft)
24.09.2016 20:00 11,0 C 11,1 C 91 % 1022,6 hPa 0,0 mm 0,1 km/h (0 Bft) S-SO 0,00 h 0,000 mm 0,0 UV-I 0 W/m 9,6 C 0,5 km/h (0 Bft)
24.09.2016 21:00 9,9 C 10,0 C 94 % 1022,3 hPa 0,0 mm 0,0 km/h (0 Bft) N 0,00 h 0,000 mm 0,0 UV-I 0 W/m 9,0 C 0,0 km/h (0 Bft)
24.09.2016 22:00 9,2 C 9,2 C 95 % 1022,1 hPa 0,0 mm 0,0 km/h (0 Bft) N 0,00 h 0,000 mm 0,0 UV-I 0 W/m 8,4 C 0,0 km/h (0 Bft)
24.09.2016 23:00 8,8 C 8,8 C 96 % 1022,1 hPa 0,0 mm 0,0 km/h (0 Bft) N 0,00 h 0,000 mm 0,0 UV-I 0 W/m 8,2 C 0,0 km/h (0 Bft)
25.09.2016 00:00 8,3 C 8,3 C 96 % 1021,9 hPa 0,0 mm 0,0 km/h (0 Bft) N 0,00 h 0,000 mm 0,0 UV-I 0 W/m 7,7 C 0,0 km/h (0 Bft)
25.09.2016 01:00 7,6 C 7,6 C 96 % 1021,5 hPa 0,0 mm 0,0 km/h (0 Bft) N 0,00 h 0,000 mm 0,0 UV-I 0 W/m 7,0 C 0,0 km/h (0 Bft)
25.09.2016 02:00 7,9 C 7,9 C 97 % 1021,3 hPa 0,0 mm 0,2 km/h (0 Bft) S 0,00 h 0,000 mm 0,0 UV-I 0 W/m 7,4 C 0,3 km/h (0 Bft)
25.09.2016 03:00 8,1 C 8,1 C 96 % 1021,1 hPa 0,0 mm 0,5 km/h (0 Bft) S 0,00 h 0,000 mm 0,0 UV-I 0 W/m 7,5 C 0,9 km/h (0 Bft)
25.09.2016 04:00 8,4 C 8,4 C 94 % 1021,1 hPa 0,0 mm 1,0 km/h (0 Bft) S 0,00 h 0,000 mm 0,0 UV-I 0 W/m 7,5 C 1,6 km/h (1 Bft)
25.09.2016 05:00 7,7 C 7,7 C 95 % 1021,1 hPa 0,0 mm 0,7 km/h (0 Bft) S-SO 0,00 h 0,000 mm 0,0 UV-I 0 W/m 6,9 C 1,3 km/h (1 Bft)
25.09.2016 06:00 8,0 C 8,1 C 94 % 1021,1 hPa 0,0 mm 1,6 km/h (1 Bft) S-SO 0,00 h 0,000 mm 0,0 UV-I 0 W/m 7,2 C 2,7 km/h (1 Bft)
25.09.2016 07:00 7,3 C 7,3 C 95 % 1021,0 hPa 0,0 mm 0,1 km/h (0 Bft) S-SO 0,00 h 0,000 mm 0,0 UV-I 14 W/m 6,5 C 0,4 km/h (0 Bft)
25.09.2016 08:00 8,9 C 8,9 C 95 % 1020,9 hPa 0,0 mm 0,2 km/h (0 Bft) S-SO 0,00 h 0,000 mm 0,0 UV-I 31 W/m 8,1 C 0,8 km/h (0 Bft)
25.09.2016 09:00 12,5 C 12,5 C 88 % 1020,7 hPa 0,0 mm 0,4 km/h (0 Bft) S-SO 0,40 h 0,025 mm 1,4 UV-I 189 W/m 10,5 C 1,1 km/h (1 Bft)
25.09.2016 10:00 15,4 C 15,4 C 80 % 1020,4 hPa 0,0 mm 0,7 km/h (0 Bft) N-NO 0,72 h 0,102 mm 2,3 UV-I 362 W/m 11,9 C 1,6 km/h (1 Bft)
25.09.2016 11:00 17,4 C 17,5 C 73 % 1019,9 hPa 0,0 mm 2,5 km/h (1 Bft) NW 1,00 h 0,203 mm 3,7 UV-I 576 W/m 12,6 C 4,4 km/h (1 Bft)
25.09.2016 12:00 19,0 C 19,1 C 65 % 1019,6 hPa 0,0 mm 5,2 km/h (1 Bft) NW 1,00 h 0,330 mm 4,2 UV-I 630 W/m 12,3 C 8,5 km/h (2 Bft)
25.09.2016 13:00 19,7 C 19,7 C 62 % 1019,3 hPa 0,0 mm 5,7 km/h (1 Bft) NW 1,00 h 0,381 mm 4,2 UV-I 628 W/m 12,1 C 9,4 km/h (2 Bft)
25.09.2016 14:00 19,6 C 19,7 C 60 % 1018,8 hPa 0,0 mm 4,9 km/h (1 Bft) NW 0,65 h 0,381 mm 3,2 UV-I 430 W/m 11,6 C 7,8 km/h (2 Bft)
25.09.2016 15:00 18,8 C 18,9 C 59 % 1018,6 hPa 0,0 mm 2,9 km/h (1 Bft) W-NW 0,20 h 0,280 mm 2,0 UV-I 239 W/m 10,4 C 5,0 km/h (1 Bft)
25.09.2016 16:00 19,1 C 19,1 C 52 % 1018,6 hPa 0,0 mm 4,3 km/h (1 Bft) W-NW 0,38 h 0,178 mm 1,6 UV-I 231 W/m 9,0 C 6,6 km/h (2 Bft)
25.09.2016 17:00 18,3 C 18,4 C 57 % 1018,8 hPa 0,0 mm 3,1 km/h (1 Bft) N-NO 0,00 h 0,152 mm 1,0 UV-I 45 W/m 9,6 C 5,2 km/h (1 Bft)
25.09.2016 18:00 14,9 C 15,0 C 76 % 1019,3 hPa 0,0 mm 1,5 km/h (1 Bft) S 0,00 h 0,051 mm 0,0 UV-I 17 W/m 10,7 C 2,9 km/h (1 Bft)
25.09.2016 19:00 13,9 C 13,9 C 80 % 1019,8 hPa 0,0 mm 3,2 km/h (1 Bft) S 0,00 h 0,025 mm 0,0 UV-I 5 W/m 10,5 C 4,8 km/h (1 Bft)
25.09.2016 20:00 12,2 C 12,3 C 85 % 1020,4 hPa 0,0 mm 5,1 km/h (1 Bft) S-SO 0,00 h 0,000 mm 0,0 UV-I 0 W/m 9,9 C 6,6 km/h (2 Bft)
25.09.2016 21:00 10,7 C 10,7 C 89 % 1020,7 hPa 0,0 mm 1,5 km/h (1 Bft) S-SO 0,00 h 0,026 mm 0,0 UV-I 0 W/m 8,9 C 2,6 km/h (1 Bft)
25.09.2016 22:00 10,4 C 10,4 C 89 % 1020,7 hPa 0,0 mm 0,0 km/h (0 Bft) N 0,00 h 0,000 mm 0,0 UV-I 0 W/m 8,7 C 0,1 km/h (0 Bft)
25.09.2016 23:00 10,2 C 10,3 C 89 % 1020,6 hPa 0,0 mm 0,0 km/h (0 Bft) N 0,00 h 0,000 mm 0,0 UV-I 0 W/m 8,6 C 0,1 km/h (0 Bft)
Min-Datum _ 22.09.16 22.09.16 25.09.16 19.09.16 - 25.09.16 - - - - - 22.09.16 25.09.16
_ Min-Zeit 02:01 02:02 16:13 00:45 - 23:00 - - - - - 02:01 23:00
Minimum _ 4,7 C 4,7 C 46 % 1011,3 hPa - 0,0 km/h (0 Bft) - - - - - 4,1 C 0,0 km/h (0 Bft)
Max-Datum _ 25.09.16 25.09.16 25.09.16 23.09.16 19.09.16 19.09.16 - 25.09.16 25.09.16 22.09.16 22.09.16 24.09.16 19.09.16
_ Max-Zeit 14:49 14:49 03:00 23:25 07:03 10:19 - 16:02 14:01 12:42 12:33 15:07 07:01
Maximum _ 20,1 C 20,1 C 97 % 1026,5 hPa 2,2 mm 20,0 km/h
W (4 Bft)
- 0,02 h 0,381 mm 4,6 UV-I 724 W/m 13,7 C 29,0 km/h
W (5 Bft)
Durchschnitt _ 10,7 C 10,7 C 89 % 1019,9 hPa #17,4 mm 2,2 km/h (1 Bft) O-NO #21:43 h #9,601 mm 1,9 UV-I 103 W/m 8,8 C 3,8 km/h (1 Bft)